sensor_id;sensor_type;location;lat;lon;timestamp;temperature;humidity
3310;DHT22;1667;53.238;10.394;2022-08-03T00:00:56;25.30;70.60
3310;DHT22;1667;53.238;10.394;2022-08-03T00:05:55;25.30;71.00
3310;DHT22;1667;53.238;10.394;2022-08-03T00:11:00;25.20;71.50
3310;DHT22;1667;53.238;10.394;2022-08-03T00:15:59;25.20;71.10
3310;DHT22;1667;53.238;10.394;2022-08-03T00:20:58;25.20;71.40
3310;DHT22;1667;53.238;10.394;2022-08-03T00:25:57;25.20;72.10
3310;DHT22;1667;53.238;10.394;2022-08-03T00:30:55;25.20;72.50
3310;DHT22;1667;53.238;10.394;2022-08-03T00:35:53;25.10;72.50
3310;DHT22;1667;53.238;10.394;2022-08-03T00:40:53;25.10;72.70
3310;DHT22;1667;53.238;10.394;2022-08-03T00:45:52;25.10;73.10
3310;DHT22;1667;53.238;10.394;2022-08-03T00:50:52;25.00;73.00
3310;DHT22;1667;53.238;10.394;2022-08-03T00:55:50;25.00;72.80
3310;DHT22;1667;53.238;10.394;2022-08-03T01:00:50;25.00;72.20
3310;DHT22;1667;53.238;10.394;2022-08-03T01:05:52;24.90;72.20
3310;DHT22;1667;53.238;10.394;2022-08-03T01:11:00;24.90;72.70
3310;DHT22;1667;53.238;10.394;2022-08-03T01:16:09;24.80;72.30
3310;DHT22;1667;53.238;10.394;2022-08-03T01:21:13;24.80;72.10
3310;DHT22;1667;53.238;10.394;2022-08-03T01:31:46;24.70;73.40
3310;DHT22;1667;53.238;10.394;2022-08-03T01:37:06;24.60;72.50
3310;DHT22;1667;53.238;10.394;2022-08-03T01:42:07;24.50;73.30
3310;DHT22;1667;53.238;10.394;2022-08-03T01:47:09;24.40;73.50
3310;DHT22;1667;53.238;10.394;2022-08-03T01:52:09;24.40;73.30
3310;DHT22;1667;53.238;10.394;2022-08-03T01:57:08;24.30;72.60
3310;DHT22;1667;53.238;10.394;2022-08-03T02:02:11;24.30;73.30
3310;DHT22;1667;53.238;10.394;2022-08-03T02:07:30;24.20;72.90
3310;DHT22;1667;53.238;10.394;2022-08-03T02:12:30;24.10;73.20
3310;DHT22;1667;53.238;10.394;2022-08-03T02:17:32;24.10;72.90
3310;DHT22;1667;53.238;10.394;2022-08-03T02:22:38;24.00;73.80
3310;DHT22;1667;53.238;10.394;2022-08-03T02:27:39;23.90;74.20
3310;DHT22;1667;53.238;10.394;2022-08-03T02:32:44;23.90;74.20
3310;DHT22;1667;53.238;10.394;2022-08-03T02:37:47;23.80;73.70
3310;DHT22;1667;53.238;10.394;2022-08-03T02:42:50;23.80;74.10
3310;DHT22;1667;53.238;10.394;2022-08-03T02:47:53;23.70;74.40
3310;DHT22;1667;53.238;10.394;2022-08-03T02:52:52;23.70;74.50
3310;DHT22;1667;53.238;10.394;2022-08-03T02:57:52;23.60;74.40
3310;DHT22;1667;53.238;10.394;2022-08-03T03:02:53;23.60;74.40
3310;DHT22;1667;53.238;10.394;2022-08-03T03:07:52;23.50;74.80
3310;DHT22;1667;53.238;10.394;2022-08-03T03:12:54;23.50;74.70
3310;DHT22;1667;53.238;10.394;2022-08-03T03:17:54;23.40;74.30
3310;DHT22;1667;53.238;10.394;2022-08-03T03:22:54;23.30;74.30
3310;DHT22;1667;53.238;10.394;2022-08-03T03:27:52;23.30;74.80
3310;DHT22;1667;53.238;10.394;2022-08-03T03:32:56;23.30;75.00
3310;DHT22;1667;53.238;10.394;2022-08-03T03:37:55;23.20;75.30
3310;DHT22;1667;53.238;10.394;2022-08-03T03:42:54;23.10;75.40
3310;DHT22;1667;53.238;10.394;2022-08-03T03:47:52;23.10;75.50
3310;DHT22;1667;53.238;10.394;2022-08-03T03:52:52;23.10;75.80
3310;DHT22;1667;53.238;10.394;2022-08-03T03:57:50;23.00;75.40
3310;DHT22;1667;53.238;10.394;2022-08-03T04:02:48;23.00;75.70
3310;DHT22;1667;53.238;10.394;2022-08-03T04:07:57;22.90;75.50
3310;DHT22;1667;53.238;10.394;2022-08-03T04:13:14;22.90;75.70
3310;DHT22;1667;53.238;10.394;2022-08-03T04:18:13;22.80;76.20
3310;DHT22;1667;53.238;10.394;2022-08-03T04:23:16;22.80;75.80
3310;DHT22;1667;53.238;10.394;2022-08-03T04:28:16;22.80;76.30
3310;DHT22;1667;53.238;10.394;2022-08-03T04:33:28;22.70;76.60
3310;DHT22;1667;53.238;10.394;2022-08-03T04:38:30;22.70;76.50
3310;DHT22;1667;53.238;10.394;2022-08-03T04:43:32;22.70;76.90
3310;DHT22;1667;53.238;10.394;2022-08-03T04:48:31;22.70;77.40
3310;DHT22;1667;53.238;10.394;2022-08-03T04:53:31;22.80;76.90
3310;DHT22;1667;53.238;10.394;2022-08-03T04:58:29;22.90;76.50
3310;DHT22;1667;53.238;10.394;2022-08-03T05:03:27;23.00;77.00
3310;DHT22;1667;53.238;10.394;2022-08-03T05:08:27;23.00;76.60
3310;DHT22;1667;53.238;10.394;2022-08-03T05:13:28;23.10;76.70
3310;DHT22;1667;53.238;10.394;2022-08-03T05:18:27;23.10;76.70
3310;DHT22;1667;53.238;10.394;2022-08-03T05:23:25;23.20;76.70
3310;DHT22;1667;53.238;10.394;2022-08-03T05:28:23;23.20;76.90
3310;DHT22;1667;53.238;10.394;2022-08-03T05:33:23;23.30;77.10
3310;DHT22;1667;53.238;10.394;2022-08-03T05:38:21;23.40;76.80
3310;DHT22;1667;53.238;10.394;2022-08-03T05:43:31;23.50;77.20
3310;DHT22;1667;53.238;10.394;2022-08-03T05:48:33;23.60;77.30
3310;DHT22;1667;53.238;10.394;2022-08-03T05:53:32;23.70;78.00
3310;DHT22;1667;53.238;10.394;2022-08-03T05:58:30;23.70;77.30
3310;DHT22;1667;53.238;10.394;2022-08-03T06:03:29;23.80;77.20
3310;DHT22;1667;53.238;10.394;2022-08-03T06:08:29;23.90;78.20
3310;DHT22;1667;53.238;10.394;2022-08-03T06:13:27;24.10;78.00
3310;DHT22;1667;53.238;10.394;2022-08-03T06:18:25;24.20;77.90
3310;DHT22;1667;53.238;10.394;2022-08-03T06:23:23;24.40;77.60
3310;DHT22;1667;53.238;10.394;2022-08-03T06:28:45;24.50;78.60
3310;DHT22;1667;53.238;10.394;2022-08-03T06:33:49;24.70;78.40
3310;DHT22;1667;53.238;10.394;2022-08-03T06:39:08;24.80;77.80
3310;DHT22;1667;53.238;10.394;2022-08-03T06:44:07;24.90;78.90
3310;DHT22;1667;53.238;10.394;2022-08-03T06:49:06;25.10;78.50
3310;DHT22;1667;53.238;10.394;2022-08-03T06:54:04;25.30;78.40
3310;DHT22;1667;53.238;10.394;2022-08-03T06:59:03;25.50;78.60
3310;DHT22;1667;53.238;10.394;2022-08-03T07:04:03;25.60;77.60
3310;DHT22;1667;53.238;10.394;2022-08-03T07:09:02;25.80;77.40
3310;DHT22;1667;53.238;10.394;2022-08-03T07:14:00;26.10;77.40
3310;DHT22;1667;53.238;10.394;2022-08-03T07:18:58;26.20;76.90
3310;DHT22;1667;53.238;10.394;2022-08-03T07:23:58;26.20;77.10
3310;DHT22;1667;53.238;10.394;2022-08-03T07:28:56;26.40;77.00
3310;DHT22;1667;53.238;10.394;2022-08-03T07:33:56;26.60;76.90
3310;DHT22;1667;53.238;10.394;2022-08-03T07:38:54;26.70;77.30
3310;DHT22;1667;53.238;10.394;2022-08-03T07:43:55;26.90;76.70
3310;DHT22;1667;53.238;10.394;2022-08-03T07:48:53;27.00;76.60
3310;DHT22;1667;53.238;10.394;2022-08-03T07:53:52;27.10;76.00
3310;DHT22;1667;53.238;10.394;2022-08-03T07:58:55;27.30;75.70
3310;DHT22;1667;53.238;10.394;2022-08-03T08:03:53;27.50;75.80
3310;DHT22;1667;53.238;10.394;2022-08-03T08:08:52;27.60;75.10
3310;DHT22;1667;53.238;10.394;2022-08-03T08:13:51;27.80;74.80
3310;DHT22;1667;53.238;10.394;2022-08-03T08:18:50;27.90;74.30
3310;DHT22;1667;53.238;10.394;2022-08-03T08:23:48;28.00;74.10
3310;DHT22;1667;53.238;10.394;2022-08-03T08:28:53;28.20;74.10
3310;DHT22;1667;53.238;10.394;2022-08-03T08:33:52;28.30;73.80
3310;DHT22;1667;53.238;10.394;2022-08-03T08:39:00;28.50;74.10
3310;DHT22;1667;53.238;10.394;2022-08-03T08:43:58;28.70;73.60
3310;DHT22;1667;53.238;10.394;2022-08-03T08:48:59;28.90;73.10
3310;DHT22;1667;53.238;10.394;2022-08-03T08:54:01;29.10;73.00
3310;DHT22;1667;53.238;10.394;2022-08-03T08:59:00;29.30;72.50
3310;DHT22;1667;53.238;10.394;2022-08-03T09:04:01;29.40;72.30
3310;DHT22;1667;53.238;10.394;2022-08-03T09:09:05;29.60;72.60
3310;DHT22;1667;53.238;10.394;2022-08-03T09:14:04;29.70;71.90
3310;DHT22;1667;53.238;10.394;2022-08-03T09:19:11;29.80;71.80
3310;DHT22;1667;53.238;10.394;2022-08-03T09:24:09;29.90;72.00
3310;DHT22;1667;53.238;10.394;2022-08-03T09:29:31;30.10;71.80
3310;DHT22;1667;53.238;10.394;2022-08-03T09:34:31;30.20;71.50
3310;DHT22;1667;53.238;10.394;2022-08-03T09:39:30;30.40;71.40
3310;DHT22;1667;53.238;10.394;2022-08-03T09:44:39;30.50;71.10
3310;DHT22;1667;53.238;10.394;2022-08-03T09:49:41;30.70;71.00
3310;DHT22;1667;53.238;10.394;2022-08-03T09:55:10;30.80;70.40
3310;DHT22;1667;53.238;10.394;2022-08-03T10:00:29;31.00;69.20
3310;DHT22;1667;53.238;10.394;2022-08-03T10:05:32;31.10;69.50
3310;DHT22;1667;53.238;10.394;2022-08-03T10:10:41;31.30;69.70
3310;DHT22;1667;53.238;10.394;2022-08-03T10:15:40;31.50;69.10
3310;DHT22;1667;53.238;10.394;2022-08-03T10:21:02;31.70;68.80
3310;DHT22;1667;53.238;10.394;2022-08-03T10:26:03;31.90;67.50
3310;DHT22;1667;53.238;10.394;2022-08-03T10:31:04;32.10;67.60
3310;DHT22;1667;53.238;10.394;2022-08-03T10:36:06;32.30;67.70
3310;DHT22;1667;53.238;10.394;2022-08-03T10:41:05;32.50;67.30
3310;DHT22;1667;53.238;10.394;2022-08-03T10:46:06;32.60;66.60
3310;DHT22;1667;53.238;10.394;2022-08-03T10:51:06;32.70;65.50
3310;DHT22;1667;53.238;10.394;2022-08-03T10:56:05;32.90;65.70
3310;DHT22;1667;53.238;10.394;2022-08-03T11:01:51;33.00;65.40
3310;DHT22;1667;53.238;10.394;2022-08-03T11:07:20;33.20;65.20
3310;DHT22;1667;53.238;10.394;2022-08-03T11:12:24;33.50;64.70
3310;DHT22;1667;53.238;10.394;2022-08-03T11:17:27;33.70;64.60
3310;DHT22;1667;53.238;10.394;2022-08-03T11:22:47;33.90;64.20
3310;DHT22;1667;53.238;10.394;2022-08-03T11:27:46;34.20;63.20
3310;DHT22;1667;53.238;10.394;2022-08-03T11:33:02;34.30;62.40
3310;DHT22;1667;53.238;10.394;2022-08-03T11:38:04;34.60;62.50
3310;DHT22;1667;53.238;10.394;2022-08-03T11:43:03;34.70;62.30
3310;DHT22;1667;53.238;10.394;2022-08-03T11:48:14;35.00;62.00
3310;DHT22;1667;53.238;10.394;2022-08-03T12:00:19;35.40;59.80
3310;DHT22;1667;53.238;10.394;2022-08-03T12:05:17;35.60;59.30
3310;DHT22;1667;53.238;10.394;2022-08-03T12:10:15;35.80;59.30
3310;DHT22;1667;53.238;10.394;2022-08-03T12:15:15;35.90;60.10
3310;DHT22;1667;53.238;10.394;2022-08-03T12:20:20;36.10;59.50
3310;DHT22;1667;53.238;10.394;2022-08-03T12:25:32;36.30;58.80
3310;DHT22;1667;53.238;10.394;2022-08-03T12:30:38;36.50;58.40
3310;DHT22;1667;53.238;10.394;2022-08-03T12:35:36;36.60;58.20
3310;DHT22;1667;53.238;10.394;2022-08-03T12:40:56;36.80;58.30
3310;DHT22;1667;53.238;10.394;2022-08-03T12:46:12;37.00;57.80
3310;DHT22;1667;53.238;10.394;2022-08-03T12:51:10;37.10;57.40
3310;DHT22;1667;53.238;10.394;2022-08-03T12:56:08;37.20;57.80
3310;DHT22;1667;53.238;10.394;2022-08-03T13:01:07;37.40;57.00
3310;DHT22;1667;53.238;10.394;2022-08-03T13:06:12;37.50;57.50
3310;DHT22;1667;53.238;10.394;2022-08-03T13:11:18;37.70;57.00
3310;DHT22;1667;53.238;10.394;2022-08-03T13:16:17;37.80;56.40
3310;DHT22;1667;53.238;10.394;2022-08-03T13:21:18;38.00;56.00
3310;DHT22;1667;53.238;10.394;2022-08-03T13:26:16;38.20;55.60
3310;DHT22;1667;53.238;10.394;2022-08-03T13:31:14;38.10;54.90
3310;DHT22;1667;53.238;10.394;2022-08-03T13:36:13;38.20;55.80
3310;DHT22;1667;53.238;10.394;2022-08-03T13:41:12;38.20;55.40
3310;DHT22;1667;53.238;10.394;2022-08-03T13:46:12;38.20;55.80
3310;DHT22;1667;53.238;10.394;2022-08-03T13:51:10;38.20;55.00
3310;DHT22;1667;53.238;10.394;2022-08-03T13:56:20;38.30;54.80
3310;DHT22;1667;53.238;10.394;2022-08-03T14:07:42;38.50;53.50
3310;DHT22;1667;53.238;10.394;2022-08-03T14:12:42;38.40;52.40
3310;DHT22;1667;53.238;10.394;2022-08-03T14:17:40;38.40;53.40
3310;DHT22;1667;53.238;10.394;2022-08-03T14:22:46;38.40;53.50
3310;DHT22;1667;53.238;10.394;2022-08-03T14:27:45;38.40;53.20
3310;DHT22;1667;53.238;10.394;2022-08-03T14:32:43;38.30;52.60
3310;DHT22;1667;53.238;10.394;2022-08-03T14:37:42;38.30;53.00
3310;DHT22;1667;53.238;10.394;2022-08-03T14:42:40;38.20;53.00
3310;DHT22;1667;53.238;10.394;2022-08-03T14:47:39;38.10;52.80
3310;DHT22;1667;53.238;10.394;2022-08-03T14:52:58;38.10;53.10
3310;DHT22;1667;53.238;10.394;2022-08-03T14:58:00;38.10;53.40
3310;DHT22;1667;53.238;10.394;2022-08-03T15:03:17;38.20;52.40
3310;DHT22;1667;53.238;10.394;2022-08-03T15:08:19;38.20;52.60
3310;DHT22;1667;53.238;10.394;2022-08-03T15:13:18;38.10;52.70
3310;DHT22;1667;53.238;10.394;2022-08-03T15:18:18;38.10;52.80
3310;DHT22;1667;53.238;10.394;2022-08-03T15:23:17;38.10;51.70
3310;DHT22;1667;53.238;10.394;2022-08-03T15:28:15;38.00;52.20
3310;DHT22;1667;53.238;10.394;2022-08-03T15:33:13;38.00;52.20
3310;DHT22;1667;53.238;10.394;2022-08-03T15:38:13;37.90;52.70
3310;DHT22;1667;53.238;10.394;2022-08-03T15:43:11;37.90;52.40
3310;DHT22;1667;53.238;10.394;2022-08-03T15:48:10;37.80;52.60
3310;DHT22;1667;53.238;10.394;2022-08-03T15:53:08;37.80;52.30
3310;DHT22;1667;53.238;10.394;2022-08-03T15:58:08;37.70;53.00
3310;DHT22;1667;53.238;10.394;2022-08-03T16:03:26;37.60;53.70
3310;DHT22;1667;53.238;10.394;2022-08-03T16:08:30;37.50;53.80
3310;DHT22;1667;53.238;10.394;2022-08-03T16:13:29;37.50;52.90
3310;DHT22;1667;53.238;10.394;2022-08-03T16:18:48;37.30;52.90
3310;DHT22;1667;53.238;10.394;2022-08-03T16:23:46;37.30;53.50
3310;DHT22;1667;53.238;10.394;2022-08-03T16:28:46;37.20;53.60
3310;DHT22;1667;53.238;10.394;2022-08-03T16:33:44;37.20;54.10
3310;DHT22;1667;53.238;10.394;2022-08-03T16:38:42;37.10;54.30
3310;DHT22;1667;53.238;10.394;2022-08-03T16:43:41;37.10;53.70
3310;DHT22;1667;53.238;10.394;2022-08-03T16:48:40;37.00;54.20
3310;DHT22;1667;53.238;10.394;2022-08-03T16:53:38;36.90;53.70
3310;DHT22;1667;53.238;10.394;2022-08-03T16:58:57;36.80;53.80
3310;DHT22;1667;53.238;10.394;2022-08-03T17:03:58;36.70;53.90
3310;DHT22;1667;53.238;10.394;2022-08-03T17:09:02;36.50;53.60
3310;DHT22;1667;53.238;10.394;2022-08-03T17:14:05;36.30;54.00
3310;DHT22;1667;53.238;10.394;2022-08-03T17:19:07;36.20;54.30
3310;DHT22;1667;53.238;10.394;2022-08-03T17:24:08;36.00;54.70
3310;DHT22;1667;53.238;10.394;2022-08-03T17:29:09;35.90;54.90
3310;DHT22;1667;53.238;10.394;2022-08-03T17:34:12;35.80;55.00
3310;DHT22;1667;53.238;10.394;2022-08-03T17:39:12;35.70;55.00
3310;DHT22;1667;53.238;10.394;2022-08-03T17:44:12;35.60;55.80
3310;DHT22;1667;53.238;10.394;2022-08-03T17:49:32;35.50;55.70
3310;DHT22;1667;53.238;10.394;2022-08-03T17:54:40;35.40;56.00
3310;DHT22;1667;53.238;10.394;2022-08-03T18:06:58;35.20;56.50
3310;DHT22;1667;53.238;10.394;2022-08-03T18:12:12;35.00;56.90
3310;DHT22;1667;53.238;10.394;2022-08-03T18:17:20;34.80;57.10
3310;DHT22;1667;53.238;10.394;2022-08-03T18:22:45;34.70;56.90
3310;DHT22;1667;53.238;10.394;2022-08-03T18:27:45;34.50;57.20
3310;DHT22;1667;53.238;10.394;2022-08-03T18:32:44;34.40;57.30
3310;DHT22;1667;53.238;10.394;2022-08-03T18:37:58;34.30;57.20
3310;DHT22;1667;53.238;10.394;2022-08-03T18:42:56;34.10;57.50
3310;DHT22;1667;53.238;10.394;2022-08-03T18:48:10;34.00;57.90
3310;DHT22;1667;53.238;10.394;2022-08-03T18:53:16;33.80;57.60
3310;DHT22;1667;53.238;10.394;2022-08-03T18:58:20;33.70;58.00
3310;DHT22;1667;53.238;10.394;2022-08-03T19:03:23;33.50;57.90
3310;DHT22;1667;53.238;10.394;2022-08-03T19:08:45;33.40;58.50
3310;DHT22;1667;53.238;10.394;2022-08-03T19:13:48;33.20;58.70
3310;DHT22;1667;53.238;10.394;2022-08-03T19:18:47;33.20;59.00
3310;DHT22;1667;53.238;10.394;2022-08-03T19:23:49;33.00;59.10
3310;DHT22;1667;53.238;10.394;2022-08-03T19:28:54;32.80;59.30
3310;DHT22;1667;53.238;10.394;2022-08-03T19:33:53;32.70;59.50
3310;DHT22;1667;53.238;10.394;2022-08-03T19:38:56;32.50;59.70
3310;DHT22;1667;53.238;10.394;2022-08-03T19:43:58;32.30;59.80
3310;DHT22;1667;53.238;10.394;2022-08-03T19:49:03;32.20;60.10
3310;DHT22;1667;53.238;10.394;2022-08-03T19:54:14;32.10;60.40
3310;DHT22;1667;53.238;10.394;2022-08-03T19:59:25;31.90;60.50
3310;DHT22;1667;53.238;10.394;2022-08-03T20:04:24;31.80;61.00
3310;DHT22;1667;53.238;10.394;2022-08-03T20:09:24;31.60;61.10
3310;DHT22;1667;53.238;10.394;2022-08-03T20:14:27;31.50;61.30
3310;DHT22;1667;53.238;10.394;2022-08-03T20:19:27;31.40;62.10
3310;DHT22;1667;53.238;10.394;2022-08-03T20:24:33;31.20;62.40
3310;DHT22;1667;53.238;10.394;2022-08-03T20:29:34;31.10;62.70
3310;DHT22;1667;53.238;10.394;2022-08-03T20:34:53;31.00;63.00
3310;DHT22;1667;53.238;10.394;2022-08-03T20:39:55;30.80;63.30
3310;DHT22;1667;53.238;10.394;2022-08-03T20:44:54;30.70;63.50
3310;DHT22;1667;53.238;10.394;2022-08-03T20:50:03;30.60;63.80
3310;DHT22;1667;53.238;10.394;2022-08-03T20:55:06;30.50;64.20
3310;DHT22;1667;53.238;10.394;2022-08-03T21:00:11;30.40;64.20
3310;DHT22;1667;53.238;10.394;2022-08-03T21:05:11;30.30;64.40
3310;DHT22;1667;53.238;10.394;2022-08-03T21:10:14;30.10;65.00
3310;DHT22;1667;53.238;10.394;2022-08-03T21:15:15;30.00;65.20
3310;DHT22;1667;53.238;10.394;2022-08-03T21:20:34;29.90;65.80
3310;DHT22;1667;53.238;10.394;2022-08-03T21:25:34;29.70;65.80
3310;DHT22;1667;53.238;10.394;2022-08-03T21:30:36;29.60;66.20
3310;DHT22;1667;53.238;10.394;2022-08-03T21:35:34;29.50;66.80
3310;DHT22;1667;53.238;10.394;2022-08-03T21:40:34;29.40;67.90
3310;DHT22;1667;53.238;10.394;2022-08-03T21:45:35;29.40;68.80
3310;DHT22;1667;53.238;10.394;2022-08-03T21:50:36;29.30;67.70
3310;DHT22;1667;53.238;10.394;2022-08-03T21:55:37;29.10;67.50
3310;DHT22;1667;53.238;10.394;2022-08-03T22:07:32;29.00;66.90
3310;DHT22;1667;53.238;10.394;2022-08-03T22:12:32;28.90;68.00
3310;DHT22;1667;53.238;10.394;2022-08-03T22:17:32;28.80;68.10
3310;DHT22;1667;53.238;10.394;2022-08-03T22:22:53;28.70;68.30
3310;DHT22;1667;53.238;10.394;2022-08-03T22:27:54;28.60;68.60
3310;DHT22;1667;53.238;10.394;2022-08-03T22:32:54;28.60;69.10
3310;DHT22;1667;53.238;10.394;2022-08-03T22:37:54;28.50;69.50
3310;DHT22;1667;53.238;10.394;2022-08-03T22:42:56;28.40;69.50
3310;DHT22;1667;53.238;10.394;2022-08-03T22:47:54;28.30;69.80
3310;DHT22;1667;53.238;10.394;2022-08-03T22:52:55;28.20;69.80
3310;DHT22;1667;53.238;10.394;2022-08-03T22:57:55;28.10;70.20
3310;DHT22;1667;53.238;10.394;2022-08-03T23:02:53;28.10;70.40
3310;DHT22;1667;53.238;10.394;2022-08-03T23:07:54;28.00;70.60
3310;DHT22;1667;53.238;10.394;2022-08-03T23:12:55;27.90;70.80
3310;DHT22;1667;53.238;10.394;2022-08-03T23:17:56;27.80;70.90
3310;DHT22;1667;53.238;10.394;2022-08-03T23:22:55;27.70;71.20
3310;DHT22;1667;53.238;10.394;2022-08-03T23:27:55;27.70;71.80
3310;DHT22;1667;53.238;10.394;2022-08-03T23:33:01;27.60;71.50
3310;DHT22;1667;53.238;10.394;2022-08-03T23:38:02;27.60;71.90
3310;DHT22;1667;53.238;10.394;2022-08-03T23:43:21;27.50;71.70
3310;DHT22;1667;53.238;10.394;2022-08-03T23:48:40;27.40;72.40
3310;DHT22;1667;53.238;10.394;2022-08-03T23:53:42;27.30;72.50
3310;DHT22;1667;53.238;10.394;2022-08-03T23:58:58;27.30;73.00
